Time;durP1;ratioP1;P1;durP2;ratioP2;P2;SDS_P1;SDS_P2;PMS_P1;PMS_P2;Temp;Humidity;BMP_temperature;BMP_pressure;BME280_temperature;BME280_humidity;BME280_pressure;Samples;Min_cycle;Max_cycle;Signal;HPM_P1;HPM_P2
2024/03/03 00:01:50;;;;;;;24.63;14.47;;;;;;;8.07;75.28;100051.97;5070332;28;20224;-67
2024/03/03 00:04:18;;;;;;;25.40;14.80;;;;;;;8.09;74.80;100046.81;5070428;28;20201;-66
2024/03/03 00:06:46;;;;;;;25.87;14.83;;;;;;;8.09;75.30;100039.97;5058858;28;20197;-69
2024/03/03 00:09:14;;;;;;;20.57;13.90;;;;;;;8.09;74.31;100042.53;5067532;28;20228;-66
2024/03/03 00:11:42;;;;;;;23.73;14.10;;;;;;;8.10;74.19;100039.13;5064016;28;20205;-66
2024/03/03 00:14:10;;;;;;;24.87;14.40;;;;;;;8.08;74.15;100043.41;5067421;28;20237;-63
2024/03/03 00:16:41;;;;;;;25.87;14.43;;;;;;;8.08;74.22;100035.69;5074082;28;20201;-66
2024/03/03 00:19:10;;;;;;;18.90;13.40;;;;;;;8.07;74.19;100041.69;5075098;28;20216;-66
2024/03/03 00:21:38;;;;;;;24.23;13.67;;;;;;;8.05;74.14;100033.13;5063703;28;20201;-66
2024/03/03 00:24:06;;;;;;;22.43;13.50;;;;;;;8.04;73.56;100030.56;5069825;28;20209;-67
2024/03/03 00:26:35;;;;;;;21.70;13.53;;;;;;;8.06;73.47;100039.97;5072985;28;20665;-68
2024/03/03 00:29:04;;;;;;;22.73;14.13;;;;;;;8.04;74.08;100035.72;5074467;28;20201;-66
2024/03/03 00:31:32;;;;;;;22.87;12.90;;;;;;;8.04;73.61;100031.44;5074591;28;20212;-67
2024/03/03 00:34:00;;;;;;;22.20;13.37;;;;;;;8.04;73.53;100026.28;5070615;28;20216;-66
2024/03/03 00:36:29;;;;;;;19.50;12.80;;;;;;;8.05;73.02;100020.31;5067718;28;20202;-67
2024/03/03 00:38:57;;;;;;;23.03;13.10;;;;;;;8.03;73.81;100024.59;5073569;28;20617;-65
2024/03/03 00:41:25;;;;;;;25.33;12.67;;;;;;;8.05;73.06;100020.31;5068541;28;20595;-69
2024/03/03 00:43:53;;;;;;;19.57;12.93;;;;;;;8.05;72.66;100025.44;5077096;28;20572;-67
2024/03/03 00:46:21;;;;;;;19.03;12.87;;;;;;;8.04;72.74;100023.72;5074882;28;20540;-67
2024/03/03 00:48:50;;;;;;;20.10;13.33;;;;;;;8.05;73.09;100015.16;5073758;28;20715;-68
2024/03/03 00:51:21;;;;;;;19.63;13.37;;;;;;;8.03;72.54;100009.19;5068043;28;20215;-66
2024/03/03 00:53:50;;;;;;;20.20;12.43;;;;;;;8.04;72.74;100005.78;5074212;28;20228;-68
2024/03/03 00:56:23;;;;;;;18.50;12.17;;;;;;;8.03;72.94;100004.06;5074192;28;20223;-66
2024/03/03 00:58:50;;;;;;;22.30;12.83;;;;;;;8.04;72.81;100017.75;5056975;28;20205;-66
2024/03/03 01:01:24;;;;;;;23.63;13.33;;;;;;;7.99;72.44;100013.47;5067776;28;20653;-67
2024/03/03 01:03:52;;;;;;;22.77;13.17;;;;;;;8.00;72.63;100001.50;5071607;28;20194;-65
2024/03/03 01:06:24;;;;;;;21.83;13.30;;;;;;;7.99;72.47;100015.19;5073083;28;20288;-67
2024/03/03 01:08:53;;;;;;;24.90;12.20;;;;;;;7.99;72.58;100016.06;5074476;28;20615;-67
2024/03/03 01:11:21;;;;;;;23.63;12.87;;;;;;;7.99;72.66;100010.06;5068824;28;20233;-66
2024/03/03 01:13:53;;;;;;;19.40;12.37;;;;;;;7.96;71.95;100010.91;5071073;28;20291;-69
2024/03/03 01:16:24;;;;;;;21.03;12.50;;;;;;;7.95;72.17;100013.47;5071983;28;20233;-68
2024/03/03 01:18:52;;;;;;;21.67;12.50;;;;;;;7.94;72.39;100007.47;5072455;28;20240;-67
2024/03/03 01:21:20;;;;;;;17.83;12.53;;;;;;;7.95;72.42;100016.03;5072198;28;20220;-69
2024/03/03 01:23:48;;;;;;;18.60;12.13;;;;;;;7.93;72.63;100002.38;5073460;28;20543;-67
2024/03/03 01:26:18;;;;;;;18.87;12.43;;;;;;;7.95;72.74;100003.19;5073379;28;20587;-66
2024/03/03 01:28:46;;;;;;;18.37;11.97;;;;;;;7.95;73.30;100001.53;5073306;28;20654;-67
2024/03/03 01:31:14;;;;;;;20.03;12.77;;;;;;;7.95;72.53;99992.94;5066492;28;20225;-65
2024/03/03 01:33:42;;;;;;;20.17;12.70;;;;;;;7.94;73.62;99998.94;5073972;28;20637;-67
2024/03/03 01:36:11;;;;;;;19.97;12.17;;;;;;;7.96;73.04;99992.09;5067240;28;20206;-65
2024/03/03 01:38:39;;;;;;;19.47;12.33;;;;;;;7.96;72.26;100003.22;5083905;28;20613;-64
2024/03/03 01:41:07;;;;;;;19.43;12.33;;;;;;;7.94;72.81;99998.94;5072830;28;20654;-67
2024/03/03 01:43:37;;;;;;;19.97;13.57;;;;;;;7.92;72.87;99992.97;5072101;28;20198;-66
2024/03/03 01:46:05;;;;;;;21.50;13.37;;;;;;;7.90;72.75;99997.25;5070528;28;20590;-65
2024/03/03 01:48:34;;;;;;;22.60;12.57;;;;;;;7.88;72.88;99998.94;5072442;28;20267;-66
2024/03/03 01:51:02;;;;;;;21.30;13.43;;;;;;;7.86;73.42;99992.97;5071778;28;20189;-67
2024/03/03 01:53:32;;;;;;;22.13;13.43;;;;;;;7.84;72.97;99986.97;5069199;28;20255;-65
2024/03/03 01:56:01;;;;;;;20.60;13.43;;;;;;;7.86;73.12;99990.41;5070813;28;20316;-65
2024/03/03 01:58:30;;;;;;;18.87;12.20;;;;;;;7.86;73.23;99993.81;5071853;28;20289;-67
2024/03/03 02:01:01;;;;;;;22.77;12.83;;;;;;;7.87;73.15;99992.09;5070555;28;20214;-65
2024/03/03 02:03:31;;;;;;;18.63;12.47;;;;;;;7.87;73.24;99992.09;5069300;28;20322;-66
2024/03/03 02:05:59;;;;;;;18.43;13.00;;;;;;;7.85;73.94;99993.84;5069569;28;21488;-66
2024/03/03 02:08:28;;;;;;;21.83;12.63;;;;;;;7.85;73.38;99994.69;5070977;28;20209;-66
2024/03/03 02:10:56;;;;;;;19.87;11.97;;;;;;;7.83;73.83;99985.28;5070993;28;20228;-64
2024/03/03 02:13:25;;;;;;;21.27;13.10;;;;;;;7.79;73.33;99991.28;5066228;28;20616;-65
2024/03/03 02:15:53;;;;;;;23.93;12.93;;;;;;;7.79;73.90;99983.56;5070642;28;20235;-67
2024/03/03 02:18:23;;;;;;;23.83;13.77;;;;;;;7.75;74.07;99983.56;5071564;28;20816;-65
2024/03/03 02:20:51;;;;;;;20.57;13.37;;;;;;;7.75;73.88;99981.00;5071161;28;20243;-66
2024/03/03 02:23:20;;;;;;;21.83;13.47;;;;;;;7.74;73.71;99986.16;5067858;28;20296;-67
2024/03/03 02:25:49;;;;;;;18.80;12.80;;;;;;;7.71;73.76;99981.03;5070043;28;20575;-66
2024/03/03 02:28:18;;;;;;;21.53;13.63;;;;;;;7.70;73.67;99974.19;5071182;28;20203;-66
2024/03/03 02:30:46;;;;;;;20.47;12.27;;;;;;;7.69;74.03;99968.19;5071619;28;20197;-66
2024/03/03 02:33:14;;;;;;;22.13;13.37;;;;;;;7.66;74.40;99973.34;5063825;28;20276;-65
2024/03/03 02:35:42;;;;;;;22.00;12.77;;;;;;;7.64;73.94;99969.91;5073293;28;20201;-66
2024/03/03 02:38:10;;;;;;;21.53;13.17;;;;;;;7.59;74.41;99976.75;5070205;28;20300;-67
2024/03/03 02:40:39;;;;;;;21.23;13.57;;;;;;;7.57;74.41;99978.47;5068207;28;20259;-64
2024/03/03 02:43:08;;;;;;;21.57;12.67;;;;;;;7.53;74.89;99976.75;5071660;28;20764;-65
2024/03/03 02:45:37;;;;;;;21.30;13.27;;;;;;;7.48;75.71;99981.03;5070519;28;20290;-65
2024/03/03 02:48:05;;;;;;;20.00;12.67;;;;;;;7.45;74.61;99984.44;5071631;28;20254;-66
2024/03/03 02:50:33;;;;;;;19.97;12.20;;;;;;;7.44;75.32;99982.75;5067327;28;20698;-65
2024/03/03 02:53:01;;;;;;;22.30;13.40;;;;;;;7.43;75.02;99977.59;5069968;28;20701;-68
2024/03/03 02:55:29;;;;;;;22.37;13.73;;;;;;;7.42;76.07;99978.47;5071198;28;20201;-64
2024/03/03 02:58:02;;;;;;;20.40;12.63;;;;;;;7.42;75.12;99983.59;5071266;28;20291;-65
2024/03/03 03:00:30;;;;;;;21.27;13.20;;;;;;;7.42;75.94;99974.19;5068247;28;20240;-68
2024/03/03 03:02:58;;;;;;;23.77;13.50;;;;;;;7.44;75.46;99980.19;5070188;28;20240;-66
2024/03/03 03:05:26;;;;;;;20.00;12.77;;;;;;;7.42;74.68;99973.34;5070707;28;20209;-65
2024/03/03 03:07:55;;;;;;;22.30;13.70;;;;;;;7.41;74.56;99971.63;5071616;28;20562;-65
2024/03/03 03:10:23;;;;;;;22.73;13.93;;;;;;;7.40;76.16;99978.47;5064171;28;20202;-67
2024/03/03 03:12:51;;;;;;;22.63;13.83;;;;;;;7.39;75.06;99978.47;5070832;28;20231;-65
2024/03/03 03:15:21;;;;;;;20.80;13.87;;;;;;;7.37;75.74;99972.50;5071370;28;20601;-65
2024/03/03 03:17:49;;;;;;;22.47;14.07;;;;;;;7.36;75.51;99974.19;5071161;28;20712;-66
2024/03/03 03:20:17;;;;;;;21.03;13.47;;;;;;;7.35;75.79;99976.75;5068489;28;20224;-66
2024/03/03 03:22:45;;;;;;;21.20;13.87;;;;;;;7.35;75.56;99987.00;5066687;28;20197;-68
2024/03/03 03:25:13;;;;;;;22.77;14.00;;;;;;;7.36;75.63;99983.56;5062989;28;20738;-68
2024/03/03 03:27:41;;;;;;;21.10;14.13;;;;;;;7.34;75.46;99983.59;5066977;28;20289;-65
2024/03/03 03:30:11;;;;;;;23.87;14.37;;;;;;;7.33;76.27;99983.56;5069276;28;20212;-66
2024/03/03 03:32:40;;;;;;;23.13;14.07;;;;;;;7.35;76.64;99984.44;5071224;28;20371;-66
2024/03/03 03:35:09;;;;;;;23.37;14.33;;;;;;;7.36;76.22;99975.88;5071134;28;20658;-65
2024/03/03 03:37:38;;;;;;;22.93;14.03;;;;;;;7.34;75.99;99970.78;5068888;28;20205;-66
2024/03/03 03:40:09;;;;;;;22.10;13.97;;;;;;;7.33;75.72;99983.56;5070769;28;20219;-65
2024/03/03 03:42:38;;;;;;;20.33;14.03;;;;;;;7.31;75.95;99980.16;5057084;28;20201;-65
2024/03/03 03:45:06;;;;;;;20.67;14.33;;;;;;;7.26;76.22;99978.47;5071226;28;20212;-66
2024/03/03 03:47:35;;;;;;;22.27;13.83;;;;;;;7.26;76.27;99987.88;5070130;28;20213;-65
2024/03/03 03:50:05;;;;;;;21.20;14.10;;;;;;;7.22;75.82;99971.63;5069987;28;20259;-66
2024/03/03 03:52:33;;;;;;;20.47;14.03;;;;;;;7.22;76.21;99976.75;5069487;28;20193;-68
2024/03/03 03:55:00;;;;;;;20.47;13.53;;;;;;;7.22;76.39;99981.88;5071019;28;20232;-68
2024/03/03 03:57:29;;;;;;;22.37;14.60;;;;;;;7.19;76.17;99968.22;5070618;28;20224;-67
2024/03/03 03:59:57;;;;;;;20.67;14.47;;;;;;;7.25;76.28;99979.31;5063140;28;20688;-67
2024/03/03 04:02:27;;;;;;;25.60;15.07;;;;;;;7.24;76.72;99977.59;5069213;28;20229;-65
2024/03/03 04:04:58;;;;;;;23.47;14.80;;;;;;;7.22;76.66;99961.38;5069153;28;20209;-68
2024/03/03 04:07:27;;;;;;;21.73;14.90;;;;;;;7.22;76.77;99971.63;5069839;28;20209;-67
2024/03/03 04:09:55;;;;;;;21.47;14.63;;;;;;;7.23;76.65;99970.78;5070652;28;20197;-67
2024/03/03 04:12:24;;;;;;;26.53;15.87;;;;;;;7.19;77.14;99965.66;5071514;28;20229;-65
2024/03/03 04:14:53;;;;;;;26.27;14.97;;;;;;;7.21;76.31;99964.78;5078010;28;20315;-67
2024/03/03 04:17:21;;;;;;;25.57;16.03;;;;;;;7.20;76.87;99963.06;5067789;28;20230;-66
2024/03/03 04:19:49;;;;;;;22.17;15.17;;;;;;;7.17;77.02;99963.06;5065012;28;20250;-68
2024/03/03 04:22:17;;;;;;;24.47;16.13;;;;;;;7.18;77.33;99964.81;5066996;28;20221;-66
2024/03/03 04:24:46;;;;;;;26.37;16.77;;;;;;;7.15;76.99;99959.66;5069890;28;20209;-66
2024/03/03 04:27:15;;;;;;;26.50;15.33;;;;;;;7.15;77.10;99959.66;5070320;28;20650;-66
2024/03/03 04:29:47;;;;;;;23.23;15.47;;;;;;;7.13;77.13;99956.22;5070103;28;20225;-66
2024/03/03 04:32:15;;;;;;;25.03;15.33;;;;;;;7.13;77.76;99960.50;5070424;28;20255;-65
2024/03/03 04:34:43;;;;;;;24.27;15.50;;;;;;;7.12;77.54;99944.28;5067867;28;20198;-66
2024/03/03 04:37:11;;;;;;;23.60;15.67;;;;;;;7.13;77.09;99960.50;5063310;28;20297;-67
2024/03/03 04:39:40;;;;;;;30.73;17.30;;;;;;;7.10;77.06;99953.66;5069674;28;20240;-64
2024/03/03 04:42:09;;;;;;;23.37;16.00;;;;;;;7.12;77.43;99954.53;5070755;28;20217;-66
2024/03/03 04:44:38;;;;;;;23.73;16.83;;;;;;;7.11;77.36;99962.22;5069202;28;20201;-68
2024/03/03 04:47:09;;;;;;;28.53;16.27;;;;;;;7.11;76.72;99959.66;5070107;28;20206;-64
2024/03/03 04:49:38;;;;;;;24.50;17.13;;;;;;;7.11;78.05;99954.53;5069846;28;20259;-64
2024/03/03 04:52:06;;;;;;;26.87;16.47;;;;;;;7.12;77.67;99964.78;5073408;28;20205;-66
2024/03/03 04:54:34;;;;;;;26.73;16.43;;;;;;;7.11;77.42;99951.97;5066594;28;20665;-64
2024/03/03 04:57:02;;;;;;;22.90;16.50;;;;;;;7.10;77.63;99963.06;5068958;28;20770;-64
2024/03/03 04:59:31;;;;;;;25.80;16.10;;;;;;;7.06;77.73;99959.63;5070333;28;20209;-66
2024/03/03 05:02:00;;;;;;;25.10;17.23;;;;;;;7.06;77.53;99962.19;5073501;28;20225;-68
2024/03/03 05:04:27;;;;;;;24.83;16.90;;;;;;;7.04;77.04;99965.63;5071523;28;20220;-65
2024/03/03 05:06:56;;;;;;;26.53;17.77;;;;;;;7.03;77.51;99969.88;5061232;28;20209;-65
2024/03/03 05:09:25;;;;;;;25.87;17.10;;;;;;;7.01;77.99;99969.03;5066063;28;20209;-67
2024/03/03 05:11:53;;;;;;;29.33;18.17;;;;;;;7.01;78.21;99979.28;5069190;28;20251;-64
2024/03/03 05:14:21;;;;;;;22.57;15.93;;;;;;;6.98;77.88;99976.72;5059719;28;20286;-70
2024/03/03 05:16:50;;;;;;;31.30;17.77;;;;;;;6.97;77.95;99973.28;5072568;28;20205;-66
2024/03/03 05:19:20;;;;;;;25.10;16.13;;;;;;;6.97;77.96;99964.75;5073288;28;20204;-67
2024/03/03 05:21:48;;;;;;;29.10;17.47;;;;;;;6.94;77.66;99969.88;5073451;28;20224;-65
2024/03/03 05:24:16;;;;;;;28.27;17.57;;;;;;;6.97;77.72;99978.41;5070350;28;20204;-66
2024/03/03 05:26:44;;;;;;;28.43;17.67;;;;;;;6.98;77.34;99974.16;5068305;28;20227;-67
2024/03/03 05:29:12;;;;;;;25.03;16.27;;;;;;;6.96;78.46;99975.88;5072462;28;20621;-66
2024/03/03 05:31:42;;;;;;;25.77;17.50;;;;;;;6.96;77.74;99973.31;5068211;28;20193;-67
2024/03/03 05:34:12;;;;;;;26.90;16.03;;;;;;;7.01;77.73;99981.84;5072148;28;20228;-66
2024/03/03 05:36:41;;;;;;;28.00;18.20;;;;;;;6.98;77.27;99977.56;5067226;28;20285;-66
2024/03/03 05:39:10;;;;;;;27.73;18.03;;;;;;;6.98;78.13;99982.69;5070353;28;20608;-65
2024/03/03 05:41:38;;;;;;;28.83;17.37;;;;;;;6.98;77.87;99979.28;5068690;28;20221;-66
2024/03/03 05:44:07;;;;;;;28.07;17.87;;;;;;;6.99;77.31;99986.94;5077024;28;20297;-65
2024/03/03 05:46:35;;;;;;;32.20;18.03;;;;;;;7.02;77.83;99986.09;5067537;28;20203;-66
2024/03/03 05:49:03;;;;;;;26.93;17.73;;;;;;;7.07;78.15;99993.78;5068535;28;20217;-67
2024/03/03 05:51:33;;;;;;;30.50;17.23;;;;;;;7.11;77.84;99992.97;5072093;28;20194;-68
2024/03/03 05:54:06;;;;;;;28.03;17.70;;;;;;;7.13;78.09;99996.38;5067549;28;20716;-67
2024/03/03 05:56:34;;;;;;;25.43;16.73;;;;;;;7.12;78.01;99989.56;5072771;28;20296;-67
2024/03/03 05:59:05;;;;;;;27.37;16.47;;;;;;;7.18;77.83;99998.09;5071528;28;20284;-63
2024/03/03 06:01:33;;;;;;;28.77;17.70;;;;;;;7.20;77.01;99998.94;5063883;28;20977;-66
2024/03/03 06:04:05;;;;;;;26.27;17.23;;;;;;;7.22;76.81;99992.13;5070353;28;20212;-66
2024/03/03 06:06:34;;;;;;;23.30;15.93;;;;;;;7.24;77.47;99995.53;5070028;28;20198;-66
2024/03/03 06:09:04;;;;;;;23.00;16.07;;;;;;;7.29;76.91;99993.00;5072658;28;20206;-66
2024/03/03 06:11:35;;;;;;;29.63;18.00;;;;;;;7.30;76.17;99983.59;5072218;28;20204;-66
2024/03/03 06:14:03;;;;;;;29.97;17.67;;;;;;;7.26;76.14;99988.72;5070013;28;20240;-65
2024/03/03 06:16:33;;;;;;;29.73;17.97;;;;;;;7.26;76.50;99991.28;5072324;28;20216;-67
2024/03/03 06:19:02;;;;;;;32.43;18.23;;;;;;;7.25;76.55;99992.13;5066512;28;20194;-65
2024/03/03 06:21:31;;;;;;;29.80;18.30;;;;;;;7.24;76.97;99995.53;5071180;28;20229;-67
2024/03/03 06:24:01;;;;;;;26.67;17.37;;;;;;;7.25;77.07;99987.00;5071398;28;20212;-66
2024/03/03 06:26:31;;;;;;;27.83;17.77;;;;;;;7.29;76.34;99993.00;5069189;28;20214;-66
2024/03/03 06:29:00;;;;;;;25.50;17.47;;;;;;;7.34;76.61;99981.03;5072364;28;20209;-66
2024/03/03 06:31:31;;;;;;;26.60;17.43;;;;;;;7.41;76.09;99982.75;5072258;28;20223;-66
2024/03/03 06:34:02;;;;;;;23.93;16.93;;;;;;;7.44;75.18;99989.59;5072065;28;20198;-68
2024/03/03 06:36:30;;;;;;;30.27;18.50;;;;;;;7.44;75.18;99997.28;5061511;28;20209;-66
2024/03/03 06:39:03;;;;;;;28.47;17.43;;;;;;;7.42;76.07;99996.41;5077196;28;20233;-66
2024/03/03 06:41:31;;;;;;;26.37;17.97;;;;;;;7.44;75.58;99993.00;5070664;28;20197;-65
2024/03/03 06:43:59;;;;;;;27.07;18.43;;;;;;;7.52;76.12;99999.84;5065958;28;20248;-66
2024/03/03 06:46:28;;;;;;;27.83;17.50;;;;;;;7.63;76.15;99993.84;5072549;28;20205;-66
2024/03/03 06:48:56;;;;;;;32.47;19.53;;;;;;;7.84;75.35;99994.66;5072083;28;20310;-68
2024/03/03 06:51:24;;;;;;;28.37;17.50;;;;;;;7.97;74.25;99997.22;5078423;28;20329;-66
2024/03/03 06:53:52;;;;;;;29.57;18.37;;;;;;;8.04;73.25;99995.50;5067458;28;20290;-69
2024/03/03 06:56:22;;;;;;;29.57;18.23;;;;;;;8.07;73.11;99994.66;5065002;28;20716;-66
2024/03/03 06:58:50;;;;;;;28.03;19.10;;;;;;;8.00;72.42;99993.81;5061795;28;20288;-67
2024/03/03 07:01:18;;;;;;;33.50;18.50;;;;;;;7.88;73.44;99999.81;5075385;28;20213;-65
2024/03/03 07:04:13;;;;;;;35.20;19.60;;;;;;;7.79;73.70;99999.81;5063499;28;20290;-64
2024/03/03 07:06:41;;;;;;;28.53;18.97;;;;;;;7.72;73.59;99995.53;5070429;28;20216;-67
2024/03/03 07:09:10;;;;;;;31.50;19.33;;;;;;;7.70;73.55;100010.94;5079034;28;20588;-68
2024/03/03 07:11:39;;;;;;;26.30;18.63;;;;;;;7.65;73.82;100002.38;5068850;28;21249;-66
2024/03/03 07:14:07;;;;;;;27.63;19.10;;;;;;;7.64;73.83;99995.56;5069684;28;20600;-66
2024/03/03 07:16:35;;;;;;;30.87;18.70;;;;;;;7.67;74.01;99995.56;5068265;28;20210;-65
2024/03/03 07:19:06;;;;;;;28.63;19.57;;;;;;;7.72;74.21;99988.69;5068748;28;20225;-64
2024/03/03 07:21:37;;;;;;;32.77;20.10;;;;;;;7.93;74.43;99995.53;5068716;28;20201;-65
2024/03/03 07:24:06;;;;;;;28.47;17.97;;;;;;;8.06;72.32;99998.06;5064584;28;20558;-67
2024/03/03 07:26:34;;;;;;;31.73;19.60;;;;;;;8.02;72.68;99994.63;5059733;28;20658;-67
2024/03/03 07:29:07;;;;;;;28.07;18.80;;;;;;;8.04;72.09;100003.19;5064528;28;20288;-63
2024/03/03 07:31:38;;;;;;;26.50;18.40;;;;;;;8.05;72.04;100007.47;5062371;28;20236;-65
2024/03/03 07:34:07;;;;;;;29.40;19.17;;;;;;;7.94;71.88;100010.06;5066660;28;21666;-66
2024/03/03 07:36:35;;;;;;;29.10;19.83;;;;;;;7.87;73.15;100002.38;5068375;28;20205;-67
2024/03/03 07:39:03;;;;;;;32.17;19.20;;;;;;;7.94;72.53;100010.06;5069855;28;20708;-66
2024/03/03 07:41:33;;;;;;;26.77;18.67;;;;;;;8.00;72.47;100016.91;5070476;28;20204;-67
2024/03/03 07:44:06;;;;;;;25.67;18.00;;;;;;;8.07;71.97;100002.34;5064577;28;20213;-67
2024/03/03 07:46:37;;;;;;;31.97;19.17;;;;;;;8.21;71.37;99998.91;5067413;28;20209;-65
2024/03/03 07:49:06;;;;;;;27.67;18.57;;;;;;;8.41;71.03;100003.13;5064638;28;20216;-67
2024/03/03 07:51:34;;;;;;;29.23;19.47;;;;;;;8.58;69.60;100003.06;5058600;28;20205;-65
2024/03/03 07:54:02;;;;;;;28.87;19.77;;;;;;;8.94;70.61;100007.16;5066034;28;20201;-67
2024/03/03 07:56:30;;;;;;;28.27;18.83;;;;;;;9.66;68.51;100004.94;5070816;28;20205;-66
2024/03/03 07:59:03;;;;;;;26.73;17.17;;;;;;;10.51;66.26;100002.41;5069498;28;20201;-66
2024/03/03 08:01:35;;;;;;;28.40;18.60;;;;;;;11.40;63.04;100001.16;5069411;28;20232;-70
2024/03/03 08:04:03;;;;;;;27.43;19.33;;;;;;;12.21;58.83;99996.38;5063656;28;20216;-68
2024/03/03 08:06:31;;;;;;;25.93;17.27;;;;;;;12.81;57.00;99998.59;5060634;28;20201;-66
2024/03/03 08:09:03;;;;;;;26.00;17.67;;;;;;;12.88;52.77;99996.72;5078315;28;20204;-67
2024/03/03 08:11:33;;;;;;;26.30;18.73;;;;;;;12.78;53.59;100002.09;5065643;28;20202;-67
2024/03/03 08:14:03;;;;;;;28.30;18.03;;;;;;;12.77;54.20;100012.47;5059968;28;20233;-69
2024/03/03 08:16:34;;;;;;;24.67;17.30;;;;;;;12.81;54.43;100011.50;5071303;28;20740;-67
2024/03/03 08:19:02;;;;;;;26.40;18.90;;;;;;;12.76;53.04;100015.94;5068002;28;20244;-67
2024/03/03 08:21:30;;;;;;;25.90;17.60;;;;;;;12.41;52.97;100014.94;5063232;28;20223;-66
2024/03/03 08:23:58;;;;;;;26.63;18.73;;;;;;;11.93;53.63;100014.09;5066405;28;20637;-67
2024/03/03 08:26:26;;;;;;;29.47;18.70;;;;;;;11.48;55.73;100014.78;5069551;28;20211;-67
2024/03/03 08:28:55;;;;;;;27.67;20.40;;;;;;;11.16;57.17;100022.16;5063529;28;20224;-67
2024/03/03 08:31:23;;;;;;;27.33;18.53;;;;;;;10.99;57.94;100010.38;5067708;28;20209;-65
2024/03/03 08:33:53;;;;;;;27.57;20.37;;;;;;;10.85;58.40;100018.28;5062658;28;20214;-66
2024/03/03 08:36:22;;;;;;;31.70;20.10;;;;;;;10.80;59.22;100017.50;5068002;28;20205;-67
2024/03/03 08:38:50;;;;;;;29.97;19.13;;;;;;;10.95;59.74;100016.44;5067180;28;20201;-68
2024/03/03 08:41:18;;;;;;;27.67;19.30;;;;;;;11.22;58.57;100022.94;5071914;28;20200;-66
2024/03/03 08:43:46;;;;;;;31.90;19.33;;;;;;;11.28;57.33;100016.84;5073405;28;20300;-67
2024/03/03 08:46:14;;;;;;;25.37;18.23;;;;;;;11.34;57.86;100021.88;5060860;28;20670;-70
2024/03/03 08:48:42;;;;;;;29.40;20.07;;;;;;;11.37;57.61;100019.28;5071156;28;20293;-67
2024/03/03 08:51:11;;;;;;;30.03;18.77;;;;;;;11.37;57.82;100021.84;5074499;28;20209;-68
2024/03/03 08:53:39;;;;;;;33.67;19.20;;;;;;;11.27;56.86;100020.31;5070715;28;20205;-67
2024/03/03 08:56:07;;;;;;;32.13;19.83;;;;;;;11.13;57.65;100023.09;5069304;28;20206;-66
2024/03/03 08:58:35;;;;;;;25.43;18.83;;;;;;;10.95;58.09;100025.91;5072100;28;20209;-68
2024/03/03 09:01:05;;;;;;;31.40;21.23;;;;;;;10.74;58.88;100019.28;5074522;28;20197;-67
2024/03/03 09:03:35;;;;;;;28.73;19.23;;;;;;;10.52;59.58;100018.72;5061335;28;20224;-68
2024/03/03 09:06:04;;;;;;;33.00;21.17;;;;;;;10.53;59.77;100021.28;5072674;28;20217;-67
2024/03/03 09:08:33;;;;;;;31.17;19.07;;;;;;;10.56;59.44;100015.22;5073516;28;20201;-68
2024/03/03 09:11:05;;;;;;;28.93;19.70;;;;;;;10.43;59.57;100011.94;5067244;28;20216;-68
2024/03/03 09:13:33;;;;;;;28.20;19.27;;;;;;;10.40;60.68;100017.97;5072786;28;20235;-69
2024/03/03 09:16:01;;;;;;;28.13;19.77;;;;;;;10.37;60.45;100004.28;5072180;28;20251;-68
2024/03/03 09:18:29;;;;;;;31.87;19.13;;;;;;;10.26;60.81;100008.69;5072138;28;20296;-72
2024/03/03 09:20:57;;;;;;;27.87;18.97;;;;;;;10.17;61.38;100004.47;5064834;28;20206;-68
2024/03/03 09:23:25;;;;;;;31.23;20.53;;;;;;;10.12;62.15;100001.09;5063170;28;20205;-68
2024/03/03 09:25:57;;;;;;;29.57;19.80;;;;;;;10.04;62.00;100005.47;5074177;28;20281;-66
2024/03/03 09:28:25;;;;;;;31.53;19.87;;;;;;;9.92;61.66;100007.28;5064156;28;20201;-67
2024/03/03 09:30:54;;;;;;;29.00;19.30;;;;;;;9.79;62.96;100005.69;5074024;28;20197;-70
2024/03/03 09:33:22;;;;;;;33.20;20.50;;;;;;;9.71;63.24;100011.78;5064635;28;20303;-72
2024/03/03 09:35:52;;;;;;;28.13;19.73;;;;;;;9.66;63.15;100009.25;5074354;28;20202;-68
2024/03/03 09:38:20;;;;;;;31.43;19.13;;;;;;;9.66;63.48;100004.09;5067858;28;20815;-70
2024/03/03 09:40:48;;;;;;;26.77;18.07;;;;;;;9.65;63.37;100007.56;5081068;28;20216;-69
2024/03/03 09:43:17;;;;;;;27.77;19.97;;;;;;;9.63;63.78;100004.97;5073683;28;20205;-70
2024/03/03 09:45:48;;;;;;;26.43;18.90;;;;;;;9.62;63.84;100007.56;5066570;28;20214;-68
2024/03/03 09:48:18;;;;;;;27.13;19.93;;;;;;;9.64;64.08;100016.97;5069760;28;20288;-70
2024/03/03 09:50:49;;;;;;;28.13;19.83;;;;;;;9.64;64.02;100006.66;5069509;28;20197;-70
2024/03/03 09:53:18;;;;;;;25.90;18.17;;;;;;;9.67;64.08;100008.38;5071997;28;20217;-71
2024/03/03 09:55:46;;;;;;;31.50;20.93;;;;;;;9.67;63.68;100021.25;5069085;28;20251;-67
2024/03/03 09:58:14;;;;;;;27.67;18.67;;;;;;;9.60;63.41;100014.44;5068537;28;20223;-68
2024/03/03 10:00:44;;;;;;;27.93;20.07;;;;;;;9.55;63.38;100006.75;5072703;28;20213;-70
2024/03/03 10:03:13;;;;;;;30.90;19.23;;;;;;;9.46;63.65;100009.38;5063836;28;20208;-63
2024/03/03 10:05:42;;;;;;;26.73;18.83;;;;;;;9.40;64.04;100012.03;5074850;28;20232;-65
2024/03/03 10:08:11;;;;;;;31.77;21.13;;;;;;;9.35;64.38;100019.78;5070410;28;20282;-65
2024/03/03 10:10:43;;;;;;;30.20;20.07;;;;;;;9.30;64.95;100025.81;5064564;28;20205;-65
2024/03/03 10:13:17;;;;;;;27.30;18.37;;;;;;;9.28;64.63;100018.13;5077190;28;20290;-67
2024/03/03 10:15:47;;;;;;;31.03;19.50;;;;;;;9.37;65.44;100019.75;5056503;28;20206;-66
2024/03/03 10:18:16;;;;;;;31.90;21.80;;;;;;;9.45;65.25;100020.56;5066029;28;20237;-67
2024/03/03 10:20:49;;;;;;;29.97;18.90;;;;;;;9.52;64.77;100011.94;5068254;28;20198;-66
2024/03/03 10:23:21;;;;;;;28.60;19.87;;;;;;;9.56;64.91;100011.03;5072562;28;20197;-67
2024/03/03 10:25:54;;;;;;;29.70;20.70;;;;;;;9.65;64.77;100010.97;5068194;28;20290;-65
2024/03/03 10:28:22;;;;;;;26.70;17.93;;;;;;;9.71;64.34;100004.91;5070519;28;20686;-65
2024/03/03 10:31:11;;;;;;;33.87;20.43;;;;;;;9.80;64.31;100009.13;5072409;28;20197;-62
2024/03/03 10:33:53;;;;;;;28.63;20.43;;;;;;;9.84;64.30;100008.25;5061200;28;20617;-61
2024/03/03 10:36:22;;;;;;;29.90;20.10;;;;;;;9.85;64.04;99997.06;5073876;28;20205;-63
2024/03/03 10:38:52;;;;;;;30.80;19.47;;;;;;;9.91;64.51;100002.16;5072213;28;20212;-63
2024/03/03 10:41:20;;;;;;;30.33;20.53;;;;;;;10.00;63.91;99991.78;5069983;28;20330;-66
2024/03/03 10:43:50;;;;;;;30.40;17.97;;;;;;;10.05;63.33;99995.16;5066530;28;20569;-63
2024/03/03 10:46:20;;;;;;;25.80;17.53;;;;;;;10.02;62.80;99990.03;5070945;28;20271;-61
2024/03/03 10:48:49;;;;;;;31.73;19.50;;;;;;;10.02;63.47;99987.47;5071483;28;20201;-63
2024/03/03 10:51:19;;;;;;;30.10;19.63;;;;;;;10.09;63.09;99983.97;5071543;28;20984;-63
2024/03/03 10:53:50;;;;;;;26.90;18.70;;;;;;;10.17;62.68;99986.47;5058693;28;20631;-63
2024/03/03 10:56:19;;;;;;;31.23;19.17;;;;;;;10.23;62.39;99993.25;5072027;28;20233;-63
2024/03/03 10:58:54;;;;;;;28.17;19.07;;;;;;;10.17;61.60;99991.59;5068780;28;20285;-67
2024/03/03 11:01:28;;;;;;;30.30;19.87;;;;;;;10.10;62.22;99977.09;5070630;28;20220;-64
2024/03/03 11:03:56;;;;;;;30.07;19.57;;;;;;;10.09;62.17;99978.81;5058059;28;20261;-62
2024/03/03 11:06:25;;;;;;;26.60;19.00;;;;;;;10.11;62.93;99983.94;5065670;28;20766;-63
2024/03/03 11:08:55;;;;;;;28.93;19.63;;;;;;;10.12;62.90;99983.06;5066445;28;20327;-63
2024/03/03 11:11:24;;;;;;;31.40;20.23;;;;;;;10.20;62.49;99970.09;5070570;28;20206;-62
2024/03/03 11:13:58;;;;;;;30.07;19.50;;;;;;;10.24;62.78;99972.66;5076930;28;20240;-62
2024/03/03 11:16:29;;;;;;;26.53;19.07;;;;;;;10.43;61.88;99977.63;5071774;28;20373;-64
2024/03/03 11:19:03;;;;;;;30.17;19.37;;;;;;;10.67;61.45;99968.72;5071411;28;20293;-64
2024/03/03 11:21:37;;;;;;;29.87;19.83;;;;;;;10.97;60.83;99965.72;5071547;28;20209;-63
2024/03/03 11:24:07;;;;;;;32.13;20.53;;;;;;;11.12;59.42;99960.34;5067946;28;20274;-63
2024/03/03 11:26:43;;;;;;;28.10;19.27;;;;;;;11.18;59.38;99951.66;5070464;28;20249;-64
2024/03/03 11:29:13;;;;;;;28.77;20.03;;;;;;;11.22;59.28;99957.59;5059521;28;20215;-62